Time;durP1;ratioP1;P1;durP2;ratioP2;P2;SDS_P1;SDS_P2;PMS_P1;PMS_P2;Temp;Humidity;BMP_temperature;BMP_pressure;BME280_temperature;BME280_humidity;BME280_pressure;Samples;Min_cycle;Max_cycle;Signal;HPM_P1;HPM_P2
2022/06/01 00:02:00;;;;;;;11.50;10.18;;;12.90;99.90;;;;;;5120194;27;20123;-65
2022/06/01 00:04:25;;;;;;;12.65;9.88;;;12.80;99.90;;;;;;5141404;27;20208;-66
2022/06/01 00:06:51;;;;;;;12.90;10.20;;;12.90;99.90;;;;;;5119087;28;20478;-65
2022/06/01 00:09:17;;;;;;;12.13;10.18;;;12.80;99.90;;;;;;5121693;27;20031;-64
2022/06/01 00:11:43;;;;;;;11.88;10.57;;;12.80;99.90;;;;;;5119608;27;20070;-64
2022/06/01 00:14:09;;;;;;;11.98;10.23;;;12.80;99.90;;;;;;5118060;27;20478;-65
2022/06/01 00:16:35;;;;;;;12.88;10.68;;;12.70;99.90;;;;;;5120292;27;20051;-65
2022/06/01 00:19:00;;;;;;;11.98;10.77;;;12.70;99.90;;;;;;5118833;27;20058;-65
2022/06/01 00:21:26;;;;;;;13.32;10.27;;;12.70;99.90;;;;;;5119431;28;20039;-64
2022/06/01 00:23:52;;;;;;;12.60;11.00;;;12.70;99.90;;;;;;5119587;27;20035;-65
2022/06/01 00:26:18;;;;;;;13.45;10.68;;;12.70;99.90;;;;;;5119601;27;20372;-64
2022/06/01 00:28:43;;;;;;;11.50;10.30;;;12.60;99.90;;;;;;5121719;27;20030;-65
2022/06/01 00:31:13;;;;;;;12.25;10.63;;;12.60;99.90;;;;;;5141895;27;20255;-64
2022/06/01 00:33:39;;;;;;;11.98;10.30;;;12.60;99.90;;;;;;5102256;28;20126;-65
2022/06/01 00:36:07;;;;;;;12.38;10.98;;;12.60;99.90;;;;;;5114473;28;20051;-64
2022/06/01 00:38:33;;;;;;;12.23;10.48;;;12.60;99.90;;;;;;5120140;27;20071;-65
2022/06/01 00:40:59;;;;;;;12.38;10.73;;;12.50;99.90;;;;;;5119541;27;20050;-64
2022/06/01 00:43:45;;;;;;;12.38;10.73;;;12.60;99.90;;;;;;5103126;27;20057;-65
2022/06/01 00:46:12;;;;;;;11.55;10.35;;;12.50;99.90;;;;;;5102928;27;20043;-65
2022/06/01 00:48:51;;;;;;;11.95;10.27;;;12.50;99.90;;;;;;5143456;27;20035;-64
2022/06/01 00:51:21;;;;;;;11.88;10.05;;;12.50;99.90;;;;;;5122075;27;20419;-64
2022/06/01 00:53:50;;;;;;;13.13;10.35;;;12.60;99.90;;;;;;5119280;27;20023;-64
2022/06/01 00:56:20;;;;;;;11.30;10.10;;;12.60;99.90;;;;;;5122891;27;20570;-64
2022/06/01 00:58:51;;;;;;;11.85;10.65;;;12.60;99.90;;;;;;5107840;27;20117;-64
2022/06/01 01:01:19;;;;;;;11.48;9.80;;;12.60;99.90;;;;;;5122805;27;20507;-64
2022/06/01 01:03:49;;;;;;;11.35;9.95;;;12.50;99.90;;;;;;5120286;27;20448;-65
2022/06/01 01:06:37;;;;;;;13.02;10.23;;;12.60;99.90;;;;;;5105332;27;20142;-64
2022/06/01 01:09:05;;;;;;;11.88;9.70;;;12.60;99.90;;;;;;5125304;27;20068;-64
2022/06/01 01:11:42;;;;;;;13.40;10.85;;;12.60;99.90;;;;;;5122238;27;20371;-65
2022/06/01 01:14:11;;;;;;;13.15;10.77;;;12.60;99.90;;;;;;5118795;27;20031;-65
2022/06/01 01:16:37;;;;;;;15.25;10.48;;;12.60;99.90;;;;;;5106030;27;20039;-64
2022/06/01 01:19:13;;;;;;;11.57;9.60;;;12.60;99.90;;;;;;5122348;27;20188;-64
2022/06/01 01:21:41;;;;;;;10.13;9.13;;;12.60;99.90;;;;;;5122834;27;20035;-65
2022/06/01 01:24:32;;;;;;;10.20;9.20;;;12.60;99.90;;;;;;5117889;27;20055;-64
2022/06/01 01:26:58;;;;;;;11.07;9.50;;;12.60;99.90;;;;;;5142040;27;20061;-65
2022/06/01 01:29:40;;;;;;;12.10;9.20;;;12.60;99.90;;;;;;5121977;27;20032;-65
2022/06/01 01:32:08;;;;;;;10.05;9.05;;;12.60;99.90;;;;;;5133859;27;20043;-64
2022/06/01 01:34:35;;;;;;;10.73;8.38;;;12.60;99.90;;;;;;5146196;27;20027;-64
2022/06/01 01:37:04;;;;;;;10.43;8.13;;;12.60;99.90;;;;;;5143172;27;20031;-66
2022/06/01 01:39:36;;;;;;;9.52;8.00;;;12.50;99.90;;;;;;5121332;27;20043;-64
2022/06/01 01:42:02;;;;;;;18.15;8.52;;;12.50;99.90;;;;;;5123108;27;20035;-66
2022/06/01 01:44:41;;;;;;;12.32;8.88;;;12.50;99.90;;;;;;5123985;27;20497;-64
2022/06/01 01:47:07;;;;;;;10.63;8.00;;;12.50;99.90;;;;;;5116615;27;20051;-64
2022/06/01 01:49:35;;;;;;;12.52;8.20;;;12.50;99.90;;;;;;5120873;27;20391;-64
2022/06/01 01:52:08;;;;;;;9.85;8.18;;;12.50;99.90;;;;;;5122503;27;20058;-66
2022/06/01 01:55:08;;;;;;;13.88;8.65;;;12.50;99.90;;;;;;5121486;27;20414;-64
2022/06/01 01:57:53;;;;;;;11.32;9.60;;;12.50;99.90;;;;;;5118431;27;20027;-64
2022/06/01 02:00:28;;;;;;;12.65;10.35;;;12.40;99.90;;;;;;5120899;27;20039;-64
2022/06/01 02:03:15;;;;;;;11.80;10.07;;;12.40;99.90;;;;;;5105362;27;20039;-64
2022/06/01 02:06:04;;;;;;;14.20;10.68;;;12.40;99.90;;;;;;5121506;27;20046;-64
2022/06/01 02:08:48;;;;;;;15.80;10.95;;;12.40;99.90;;;;;;5118064;27;20035;-64
2022/06/01 02:14:54;;;;;;;13.65;12.27;;;12.30;99.90;;;;;;5144452;27;20038;-65
2022/06/01 02:17:23;;;;;;;14.05;12.23;;;12.30;99.90;;;;;;5119553;27;20119;-64
2022/06/01 02:20:03;;;;;;;13.88;12.20;;;12.30;99.90;;;;;;5143827;27;20034;-64
2022/06/01 02:22:29;;;;;;;13.68;12.27;;;12.30;99.90;;;;;;5104918;27;20046;-64
2022/06/01 02:24:55;;;;;;;15.65;12.60;;;12.20;99.90;;;;;;5120855;27;20047;-65
2022/06/01 02:27:22;;;;;;;15.45;12.55;;;12.30;99.90;;;;;;5118684;27;20034;-64
2022/06/01 02:30:07;;;;;;;13.68;12.27;;;12.20;99.90;;;;;;5143572;27;20130;-64
2022/06/01 02:32:34;;;;;;;;;;;12.20;99.90;;;;;;5143456;27;20088;-64
2022/06/01 02:35:02;;;;;;;14.57;12.52;;;12.20;99.90;;;;;;5139192;27;19931;-64
2022/06/01 02:37:29;;;;;;;13.88;12.55;;;12.10;99.90;;;;;;5121917;27;20054;-64
2022/06/01 02:39:57;;;;;;;13.85;12.43;;;12.10;99.90;;;;;;5144047;27;20046;-64
2022/06/01 02:42:26;;;;;;;13.15;11.75;;;12.10;99.90;;;;;;5142429;27;20117;-65
2022/06/01 02:45:05;;;;;;;15.82;12.25;;;12.10;99.90;;;;;;5104899;27;20034;-64
2022/06/01 02:47:34;;;;;;;14.23;12.82;;;12.00;99.90;;;;;;5117158;27;20042;-65
2022/06/01 02:50:00;;;;;;;14.95;13.38;;;12.00;99.90;;;;;;5121061;27;20439;-64
2022/06/01 02:52:27;;;;;;;15.25;13.65;;;11.90;99.90;;;;;;5121732;27;20050;-64
2022/06/01 02:54:53;;;;;;;15.65;14.15;;;11.80;99.90;;;;;;5120940;27;20399;-65
2022/06/01 02:57:20;;;;;;;16.52;14.80;;;11.80;99.90;;;;;;5117497;27;21159;-64
2022/06/01 02:59:46;;;;;;;15.27;13.70;;;11.70;99.90;;;;;;5117919;27;20053;-65
2022/06/01 03:02:12;;;;;;;16.02;14.30;;;11.70;99.90;;;;;;5119551;27;20156;-64
2022/06/01 03:04:45;;;;;;;15.90;14.30;;;11.70;99.90;;;;;;5120768;27;20118;-65
2022/06/01 03:07:12;;;;;;;16.08;14.48;;;11.70;99.90;;;;;;5115204;27;20043;-64
2022/06/01 03:09:38;;;;;;;15.77;14.25;;;11.60;99.90;;;;;;5119967;27;20112;-65
2022/06/01 03:12:06;;;;;;;17.00;14.77;;;11.60;99.90;;;;;;5117595;27;20047;-64
2022/06/01 03:14:32;;;;;;;15.38;13.77;;;11.60;99.90;;;;;;5119897;27;20035;-64
2022/06/01 03:16:58;;;;;;;16.48;14.77;;;11.60;99.90;;;;;;5119259;27;20055;-64
2022/06/01 03:19:25;;;;;;;17.40;15.73;;;11.60;99.90;;;;;;5117646;27;20464;-64
2022/06/01 03:21:51;;;;;;;18.02;16.17;;;11.60;99.90;;;;;;5120398;27;20108;-64
2022/06/01 03:24:17;;;;;;;18.67;16.88;;;11.50;99.90;;;;;;5120728;27;20047;-64
2022/06/01 03:26:43;;;;;;;20.05;17.58;;;11.50;99.90;;;;;;5120473;27;20035;-65
2022/06/01 03:29:09;;;;;;;19.80;17.70;;;11.50;99.90;;;;;;5119870;27;20054;-64
2022/06/01 03:31:35;;;;;;;20.45;18.15;;;11.50;99.90;;;;;;5120056;27;20332;-63
2022/06/01 03:34:02;;;;;;;21.08;18.88;;;11.50;99.90;;;;;;5120888;27;20374;-63
2022/06/01 03:36:28;;;;;;;19.05;17.13;;;11.50;99.90;;;;;;5104342;27;20456;-63
2022/06/01 03:38:53;;;;;;;20.27;18.10;;;11.50;99.90;;;;;;5100106;27;20075;-63
2022/06/01 03:41:19;;;;;;;22.00;19.77;;;11.60;99.90;;;;;;5103529;27;20115;-63
2022/06/01 03:46:32;;;;;;;21.92;19.70;;;11.60;99.90;;;;;;5140378;27;20423;-64
2022/06/01 03:48:58;;;;;;;21.50;19.30;;;11.60;99.90;;;;;;5119637;27;20092;-64
2022/06/01 03:51:26;;;;;;;22.98;20.60;;;11.70;99.90;;;;;;5102845;27;20030;-63
2022/06/01 03:53:55;;;;;;;22.55;20.27;;;11.70;99.90;;;;;;5143361;27;20042;-63
2022/06/01 03:56:22;;;;;;;22.40;20.10;;;11.70;99.90;;;;;;5120356;27;20042;-64
2022/06/01 03:58:49;;;;;;;22.83;20.52;;;11.60;99.90;;;;;;5116924;27;20387;-64
2022/06/01 04:01:15;;;;;;;23.70;21.30;;;11.70;99.90;;;;;;5119649;27;20030;-65
2022/06/01 04:03:41;;;;;;;23.65;21.25;;;11.60;99.90;;;;;;5141195;27;20035;-63
2022/06/01 04:06:07;;;;;;;23.60;21.27;;;11.70;99.90;;;;;;5143645;27;20034;-63
2022/06/01 04:08:33;;;;;;;24.10;21.63;;;11.70;99.90;;;;;;5121351;27;20031;-64
2022/06/01 04:10:58;;;;;;;25.17;21.33;;;11.70;99.90;;;;;;5117055;28;20130;-63
2022/06/01 04:13:26;;;;;;;24.27;21.65;;;11.70;99.90;;;;;;5117260;28;20063;-63
2022/06/01 04:15:52;;;;;;;25.27;22.35;;;11.60;99.90;;;;;;5119971;27;20066;-64
2022/06/01 04:18:18;;;;;;;23.17;20.83;;;11.70;99.90;;;;;;5121691;27;20089;-64
2022/06/01 04:20:45;;;;;;;21.50;19.38;;;11.70;99.90;;;;;;5122116;27;20110;-64
2022/06/01 04:23:11;;;;;;;21.55;19.25;;;11.80;99.90;;;;;;5146138;27;20047;-64
2022/06/01 04:25:36;;;;;;;22.17;20.00;;;11.80;99.90;;;;;;5146168;27;20352;-64
2022/06/01 04:28:03;;;;;;;21.65;19.52;;;11.80;99.90;;;;;;5144258;27;20038;-64
2022/06/01 04:30:29;;;;;;;22.40;20.08;;;11.90;99.90;;;;;;5123990;27;20037;-64
2022/06/01 04:32:55;;;;;;;23.65;20.92;;;11.90;99.90;;;;;;5144931;27;20031;-64
2022/06/01 04:35:22;;;;;;;21.33;19.05;;;11.90;99.90;;;;;;5147704;27;20427;-64
2022/06/01 04:37:48;;;;;;;22.98;20.20;;;11.90;99.90;;;;;;5124379;27;20046;-64
2022/06/01 04:40:15;;;;;;;20.48;18.38;;;11.90;99.90;;;;;;5146643;27;20114;-65
2022/06/01 04:42:42;;;;;;;21.60;19.30;;;11.90;99.90;;;;;;5147753;27;20068;-64
2022/06/01 04:45:11;;;;;;;21.73;19.48;;;11.90;99.90;;;;;;5146138;27;20055;-67
2022/06/01 04:47:37;;;;;;;22.35;19.95;;;12.00;99.90;;;;;;5144995;27;20042;-64
2022/06/01 04:50:03;;;;;;;22.17;19.73;;;12.00;99.90;;;;;;5144345;27;20023;-64
2022/06/01 04:52:29;;;;;;;23.25;20.85;;;12.00;99.90;;;;;;5124507;27;20041;-65
2022/06/01 04:54:55;;;;;;;24.85;22.17;;;12.00;99.90;;;;;;5145301;27;20110;-64
2022/06/01 04:57:21;;;;;;;24.13;21.38;;;12.00;99.90;;;;;;5097955;27;20049;-65
2022/06/01 04:59:47;;;;;;;23.95;21.17;;;12.00;99.90;;;;;;5125438;27;20112;-64
2022/06/01 05:02:14;;;;;;;25.17;21.02;;;12.00;99.90;;;;;;5115496;27;20051;-64
2022/06/01 05:04:40;;;;;;;24.45;21.85;;;12.20;99.90;;;;;;5139685;27;20055;-64
2022/06/01 05:07:06;;;;;;;25.15;22.50;;;12.30;99.90;;;;;;5124627;27;20028;-64
2022/06/01 05:09:31;;;;;;;25.52;21.85;;;12.30;99.90;;;;;;5122471;27;20108;-64
2022/06/01 05:11:57;;;;;;;25.02;22.45;;;12.40;99.90;;;;;;5108462;27;20040;-64
2022/06/01 05:14:23;;;;;;;27.63;24.63;;;12.40;99.90;;;;;;5109572;27;20087;-65
2022/06/01 05:16:49;;;;;;;28.33;25.30;;;12.40;99.90;;;;;;5106018;27;20039;-66
2022/06/01 05:19:15;;;;;;;27.83;24.83;;;12.40;99.90;;;;;;5126785;27;20039;-67
2022/06/01 05:21:41;;;;;;;29.55;26.35;;;12.40;99.90;;;;;;5115543;27;20039;-66
2022/06/01 05:24:07;;;;;;;28.10;25.10;;;12.40;99.90;;;;;;5116592;27;20447;-65
2022/06/01 05:26:32;;;;;;;28.30;25.15;;;12.40;99.90;;;;;;5115670;27;20410;-65
2022/06/01 05:28:58;;;;;;;28.23;25.30;;;12.40;99.90;;;;;;5123662;27;20032;-65
2022/06/01 05:31:24;;;;;;;27.70;24.52;;;12.50;99.90;;;;;;5115769;27;20032;-65
2022/06/01 05:33:49;;;;;;;25.30;22.48;;;12.90;99.90;;;;;;5116054;27;20118;-65
2022/06/01 05:36:17;;;;;;;25.17;22.20;;;13.50;99.90;;;;;;5122718;27;20039;-64
2022/06/01 05:38:45;;;;;;;24.27;20.25;;;14.40;99.90;;;;;;5122838;27;20406;-67
2022/06/01 05:41:12;;;;;;;21.90;19.52;;;15.50;99.90;;;;;;5098770;27;20051;-65
2022/06/01 05:43:37;;;;;;;20.13;18.00;;;16.30;99.90;;;;;;5108432;27;20050;-67
2022/06/01 05:46:03;;;;;;;19.45;17.45;;;17.20;99.90;;;;;;5106355;27;20035;-69
2022/06/01 05:48:29;;;;;;;18.80;16.98;;;18.20;99.90;;;;;;5099141;27;20083;-65
2022/06/01 05:50:55;;;;;;;17.70;15.77;;;18.90;99.90;;;;;;5114639;27;20054;-66
2022/06/01 05:53:21;;;;;;;17.17;15.48;;;19.50;99.90;;;;;;5113184;27;20031;-65
2022/06/01 05:55:47;;;;;;;15.45;13.80;;;19.90;99.90;;;;;;5096102;27;20032;-65
2022/06/01 05:58:24;;;;;;;15.73;14.13;;;20.60;99.90;;;;;;5113545;27;20035;-66
2022/06/01 06:00:52;;;;;;;14.50;13.05;;;20.50;99.90;;;;;;5120522;27;20049;-67
2022/06/01 06:03:19;;;;;;;15.32;13.73;;;19.90;99.90;;;;;;5125149;27;20074;-67
2022/06/01 06:08:30;;;;;;;14.00;12.60;;;19.70;99.90;;;;;;5113582;27;20054;-66
2022/06/01 06:10:55;;;;;;;12.95;11.30;;;19.50;99.90;;;;;;5122317;27;20035;-64
2022/06/01 06:13:21;;;;;;;12.65;10.98;;;19.10;99.90;;;;;;5118187;27;20031;-64
2022/06/01 06:15:48;;;;;;;13.10;11.48;;;18.50;99.90;;;;;;5116231;27;20035;-64
2022/06/01 06:18:15;;;;;;;12.20;10.90;;;17.70;99.90;;;;;;5122962;27;20083;-66
2022/06/01 06:20:42;;;;;;;12.15;10.90;;;17.00;99.90;;;;;;5126814;27;20398;-66
2022/06/01 06:23:08;;;;;;;14.15;12.18;;;16.40;99.90;;;;;;5141147;27;20064;-68
2022/06/01 06:25:34;;;;;;;12.93;11.48;;;16.00;99.90;;;;;;5118226;27;20085;-66
2022/06/01 06:28:00;;;;;;;12.48;11.27;;;15.90;99.90;;;;;;5110892;27;20047;-67
2022/06/01 06:30:25;;;;;;;12.75;11.38;;;15.80;99.90;;;;;;5092118;27;20372;-67
2022/06/01 06:32:52;;;;;;;13.18;11.52;;;15.70;99.90;;;;;;5124363;27;20038;-66
2022/06/01 06:35:18;;;;;;;12.35;10.90;;;15.40;99.90;;;;;;5120446;27;20130;-66
2022/06/01 06:37:44;;;;;;;13.70;11.20;;;15.30;99.90;;;;;;5120978;27;20109;-65
2022/06/01 06:40:10;;;;;;;13.40;10.95;;;15.00;99.90;;;;;;5123311;27;20508;-65
2022/06/01 06:42:36;;;;;;;13.70;11.00;;;14.90;99.90;;;;;;5124165;27;20035;-65
2022/06/01 06:45:03;;;;;;;14.98;11.20;;;14.90;99.90;;;;;;5124335;27;20412;-65
2022/06/01 06:47:32;;;;;;;13.55;10.55;;;15.10;99.90;;;;;;5124762;27;20027;-68
2022/06/01 06:49:58;;;;;;;11.60;10.15;;;15.10;99.90;;;;;;5124720;27;20053;-65
2022/06/01 06:52:23;;;;;;;11.77;10.20;;;15.20;99.90;;;;;;5123473;27;20080;-64
2022/06/01 06:54:49;;;;;;;14.25;11.07;;;15.10;99.90;;;;;;5108271;27;20039;-66
2022/06/01 06:57:15;;;;;;;12.45;10.43;;;14.90;99.90;;;;;;5123893;27;20039;-66
2022/06/01 06:59:41;;;;;;;12.63;10.43;;;14.80;99.90;;;;;;5124627;27;20053;-66
2022/06/01 07:02:06;;;;;;;11.75;9.65;;;14.90;99.90;;;;;;5141853;27;20034;-65
2022/06/01 07:04:32;;;;;;;11.30;10.10;;;14.90;99.90;;;;;;5108722;27;20039;-68
2022/06/01 07:06:58;;;;;;;12.43;9.40;;;15.10;99.90;;;;;;5142136;27;20039;-65
2022/06/01 07:09:24;;;;;;;12.75;9.68;;;15.10;99.90;;;;;;5140582;27;20083;-65
2022/06/01 07:11:49;;;;;;;10.40;9.25;;;15.20;99.90;;;;;;5124198;27;20070;-65
2022/06/01 07:14:15;;;;;;;10.77;9.48;;;15.20;99.90;;;;;;5143064;27;20046;-65
2022/06/01 07:16:41;;;;;;;12.07;9.35;;;15.20;99.90;;;;;;5125403;27;20127;-65
2022/06/01 07:19:08;;;;;;;10.98;9.73;;;15.20;99.90;;;;;;5106136;27;20054;-65
2022/06/01 07:21:37;;;;;;;11.10;9.05;;;15.00;99.90;;;;;;5125151;27;20431;-65
2022/06/01 07:24:06;;;;;;;10.60;9.45;;;14.80;99.90;;;;;;5125930;27;20083;-65
2022/06/01 07:26:40;;;;;;;10.80;9.18;;;14.80;99.90;;;;;;5143040;27;20035;-66
2022/06/01 07:29:06;;;;;;;10.95;9.25;;;14.80;99.90;;;;;;5109982;27;20043;-66
2022/06/01 07:31:32;;;;;;;11.98;9.82;;;14.70;99.90;;;;;;5104755;27;20068;-66
2022/06/01 07:33:58;;;;;;;11.50;9.93;;;14.60;99.90;;;;;;5107278;27;20051;-64
2022/06/01 07:36:25;;;;;;;17.98;11.30;;;14.60;99.90;;;;;;5145875;27;20140;-61
2022/06/01 07:44:24;;;;;;;13.15;9.82;;;14.10;99.90;;;;;;5138761;27;20085;-64
2022/06/01 07:46:50;;;;;;;14.52;9.18;;;13.90;99.90;;;;;;5142374;27;20091;-63
2022/06/01 07:49:17;;;;;;;10.93;7.65;;;13.70;99.90;;;;;;5123880;27;20051;-64
2022/06/01 07:51:43;;;;;;;8.02;5.93;;;13.60;99.90;;;;;;5122859;27;20030;-65
2022/06/01 07:54:10;;;;;;;8.18;6.18;;;13.50;99.90;;;;;;5124755;27;20085;-63
2022/06/01 07:56:36;;;;;;;8.25;5.85;;;13.40;99.90;;;;;;5142340;27;20054;-64
2022/06/01 07:59:03;;;;;;;8.77;6.60;;;13.40;99.90;;;;;;5137297;27;20035;-63
2022/06/01 08:01:29;;;;;;;8.40;7.07;;;13.40;99.90;;;;;;5142650;27;20053;-64
2022/06/01 08:03:57;;;;;;;10.40;7.93;;;13.50;99.90;;;;;;5143291;27;20039;-64
2022/06/01 08:06:23;;;;;;;9.52;8.30;;;13.60;99.90;;;;;;5140640;27;20035;-64
2022/06/01 08:08:49;;;;;;;9.85;8.35;;;13.80;99.90;;;;;;5124771;27;20031;-65
2022/06/01 08:11:15;;;;;;;10.90;9.80;;;13.80;99.90;;;;;;5124228;27;20104;-65
2022/06/01 08:13:41;;;;;;;10.05;8.88;;;14.30;99.90;;;;;;5105741;27;20043;-65
2022/06/01 08:16:07;;;;;;;31.17;10.80;;;14.50;99.90;;;;;;5106193;27;20035;-67
2022/06/01 08:18:33;;;;;;;11.90;10.45;;;14.90;99.90;;;;;;5085386;28;20031;-64
2022/06/01 08:20:59;;;;;;;11.48;9.27;;;15.10;99.90;;;;;;5119510;27;20379;-65
2022/06/01 08:23:28;;;;;;;9.27;7.70;;;15.40;99.90;;;;;;5116298;27;20057;-65
2022/06/01 08:25:54;;;;;;;8.43;7.53;;;15.50;99.90;;;;;;5101647;27;20371;-65
2022/06/01 08:28:20;;;;;;;9.77;7.05;;;15.70;99.90;;;;;;5118975;27;20042;-66
2022/06/01 08:30:47;;;;;;;8.25;6.35;;;15.70;99.90;;;;;;5120113;27;20036;-66
2022/06/01 08:33:13;;;;;;;7.72;5.82;;;15.70;99.90;;;;;;5119630;28;20036;-66
2022/06/01 08:35:43;;;;;;;7.35;5.40;;;15.90;99.90;;;;;;5119388;27;20109;-66
2022/06/01 08:38:09;;;;;;;4.63;3.50;;;16.00;99.90;;;;;;5117554;27;20375;-67
2022/06/01 08:40:45;;;;;;;4.30;3.17;;;16.00;99.90;;;;;;5101809;27;20034;-68
2022/06/01 08:43:13;;;;;;;6.22;3.95;;;15.90;99.90;;;;;;5115150;27;20043;-66
2022/06/01 08:45:43;;;;;;;4.15;2.95;;;16.00;99.90;;;;;;5121990;27;20043;-66
2022/06/01 08:48:16;;;;;;;5.88;3.47;;;15.90;99.90;;;;;;5114615;27;20176;-64
2022/06/01 08:50:42;;;;;;;5.78;3.88;;;15.90;99.90;;;;;;5119748;27;20035;-65
2022/06/01 08:53:09;;;;;;;5.72;4.00;;;15.90;99.90;;;;;;5118937;28;20346;-68
2022/06/01 08:55:49;;;;;;;5.63;3.40;;;15.90;99.90;;;;;;5119800;27;20031;-65
2022/06/01 08:58:19;;;;;;;4.70;3.28;;;15.90;99.90;;;;;;5116975;27;20053;-64
2022/06/01 09:00:56;;;;;;;5.45;2.75;;;16.00;99.90;;;;;;5102334;27;20332;-64
2022/06/01 09:03:30;;;;;;;6.72;2.92;;;16.00;99.90;;;;;;5119926;27;20030;-65
2022/06/01 09:06:04;;;;;;;;;;;16.10;99.90;;;;;;5122877;27;20054;-64
2022/06/01 09:08:55;;;;;;;2.88;2.20;;;16.00;99.90;;;;;;5118553;27;19919;-65
2022/06/01 09:11:32;;;;;;;5.65;1.60;;;16.20;99.90;;;;;;5121947;27;20180;-65
2022/06/01 09:14:26;;;;;;;5.00;1.80;;;16.10;99.90;;;;;;5105437;27;20031;-65
2022/06/01 09:16:55;;;;;;;2.78;2.00;;;16.30;99.90;;;;;;5117022;27;20039;-65
2022/06/01 09:22:37;;;;;;;3.83;2.50;;;16.40;99.90;;;;;;5114285;27;20126;-66
2022/06/01 09:25:05;;;;;;;6.28;2.70;;;16.40;99.90;;;;;;5116258;27;20109;-65
2022/06/01 09:27:40;;;;;;;7.20;2.20;;;16.30;99.90;;;;;;5115631;27;20039;-65
2022/06/01 09:30:24;;;;;;;1.98;1.60;;;16.30;99.90;;;;;;5113619;27;20046;-65
2022/06/01 09:33:21;;;;;;;5.50;2.58;;;16.20;99.90;;;;;;5130780;27;20370;-65
2022/06/01 09:36:01;;;;;;;4.93;1.88;;;16.40;99.90;;;;;;5110959;27;20036;-65
2022/06/01 09:38:40;;;;;;;6.18;2.75;;;16.50;99.90;;;;;;5111350;27;20372;-65
2022/06/01 09:41:24;;;;;;;6.10;2.42;;;16.70;99.90;;;;;;5112533;27;20368;-66
2022/06/01 09:44:02;;;;;;;8.70;2.78;;;16.70;99.90;;;;;;5107397;27;20031;-66
2022/06/01 09:46:34;;;;;;;4.72;2.33;;;16.80;99.90;;;;;;5113504;27;20097;-66
2022/06/01 09:49:25;;;;;;;2.85;2.05;;;16.90;99.90;;;;;;5117831;27;20047;-66
2022/06/01 09:51:57;;;;;;;6.72;2.20;;;16.90;99.90;;;;;;5114338;27;20131;-68
2022/06/01 09:54:31;;;;;;;3.08;1.80;;;16.90;99.90;;;;;;5114574;27;20148;-67
2022/06/01 09:57:14;;;;;;;2.47;1.80;;;16.80;99.90;;;;;;5115182;27;20050;-66
2022/06/01 10:08:26;;;;;;;3.80;2.17;;;17.30;99.90;;;;;;5117363;27;20039;-66
2022/06/01 10:11:26;;;;;;;5.75;2.55;;;17.30;99.90;;;;;;5114496;27;20063;-66
2022/06/01 10:14:04;;;;;;;4.97;2.17;;;17.50;99.90;;;;;;5116583;27;20122;-67
2022/06/01 10:16:52;;;;;;;2.78;2.13;;;17.30;99.90;;;;;;5094047;27;20039;-66
2022/06/01 10:19:25;;;;;;;3.47;1.88;;;16.90;99.90;;;;;;5113522;27;20067;-66
2022/06/01 10:22:00;;;;;;;2.20;1.70;;;16.60;99.90;;;;;;5112290;27;20066;-66
2022/06/01 10:24:48;;;;;;;3.75;1.70;;;16.30;99.90;;;;;;5111048;27;20032;-66
2022/06/01 10:27:18;;;;;;;2.70;1.70;;;16.10;99.90;;;;;;5112724;27;20038;-66
2022/06/01 10:29:53;;;;;;;3.50;1.40;;;15.80;99.90;;;;;;5114935;27;20120;-67
2022/06/01 10:32:35;;;;;;;3.13;1.60;;;15.70;99.90;;;;;;5113591;27;20097;-63
2022/06/01 10:35:20;;;;;;;8.82;4.10;;;15.40;99.90;;;;;;5121876;27;20043;-63
2022/06/01 10:37:53;;;;;;;17.88;7.75;;;15.10;99.90;;;;;;5118400;27;20046;-65
2022/06/01 10:40:36;;;;;;;4.38;1.65;;;14.90;99.90;;;;;;5113448;27;20040;-63
2022/06/01 10:43:18;;;;;;;3.17;1.27;;;14.80;99.90;;;;;;5115575;27;20051;-63
2022/06/01 10:45:49;;;;;;;1.38;1.20;;;15.00;99.90;;;;;;5115747;27;20036;-64
2022/06/01 10:48:23;;;;;;;2.63;1.70;;;15.00;99.90;;;;;;5114886;27;20046;-64
2022/06/01 10:51:10;;;;;;;6.50;2.40;;;15.10;99.90;;;;;;5111784;27;20104;-64
2022/06/01 10:54:05;;;;;;;2.00;1.20;;;15.30;99.90;;;;;;5113138;27;20036;-64
2022/06/01 10:56:32;;;;;;;1.20;1.02;;;15.30;99.90;;;;;;5111332;27;20040;-65
2022/06/01 10:59:03;;;;;;;2.22;1.23;;;15.30;99.90;;;;;;5120842;27;20071;-65
2022/06/01 11:01:53;;;;;;;3.35;1.20;;;15.40;99.90;;;;;;5117791;27;20114;-64
2022/06/01 11:04:39;;;;;;;1.13;1.02;;;15.60;99.90;;;;;;5113491;27;20113;-65
2022/06/01 11:07:27;;;;;;;1.17;0.80;;;15.60;99.90;;;;;;5109357;27;20047;-65
2022/06/01 11:10:14;;;;;;;0.90;0.85;;;15.40;99.90;;;;;;5114992;27;20042;-65
2022/06/01 11:12:59;;;;;;;1.27;0.90;;;15.30;99.90;;;;;;5113262;27;20478;-65
2022/06/01 11:15:54;;;;;;;1.77;0.90;;;15.30;99.90;;;;;;5118025;27;20459;-67
2022/06/01 11:18:44;;;;;;;1.88;1.10;;;15.10;99.90;;;;;;5109954;27;20039;-66
2022/06/01 11:21:15;;;;;;;2.65;1.30;;;14.80;99.90;;;;;;5111665;27;20493;-66
2022/06/01 11:23:47;;;;;;;9.55;2.10;;;14.70;99.90;;;;;;5096863;27;20144;-65
2022/06/01 11:26:44;;;;;;;7.85;1.65;;;14.40;99.90;;;;;;5113240;27;20054;-64
2022/06/01 11:29:35;;;;;;;2.85;1.13;;;14.40;99.90;;;;;;5113707;27;20043;-64
2022/06/01 11:32:07;;;;;;;1.92;1.15;;;14.20;99.90;;;;;;5114063;27;20359;-64
2022/06/01 11:35:00;;;;;;;1.38;0.80;;;14.20;99.90;;;;;;5113541;27;20444;-64
2022/06/01 11:37:40;;;;;;;1.38;0.95;;;14.40;99.90;;;;;;5094336;28;20048;-64
2022/06/01 11:40:22;;;;;;;1.88;0.95;;;14.50;99.90;;;;;;5113804;27;20035;-63
2022/06/01 11:42:55;;;;;;;1.38;0.80;;;14.90;99.90;;;;;;5118588;27;20123;-65
2022/06/01 11:45:28;;;;;;;2.10;0.90;;;15.30;99.90;;;;;;5116926;27;20035;-64
2022/06/01 11:48:00;;;;;;;1.02;0.50;;;15.50;99.90;;;;;;5113402;27;20040;-66
2022/06/01 11:51:09;;;;;;;1.35;0.82;;;15.70;99.90;;;;;;5111415;27;20096;-64
2022/06/01 11:53:53;;;;;;;1.77;1.10;;;15.80;99.90;;;;;;5119756;27;20035;-64
2022/06/01 11:56:51;;;;;;;2.00;1.42;;;15.90;99.90;;;;;;5119839;27;20112;-65
2022/06/01 11:59:29;;;;;;;2.97;1.70;;;16.00;99.90;;;;;;5121223;27;20062;-63
2022/06/01 12:02:00;;;;;;;3.40;1.80;;;16.10;99.90;;;;;;5121625;27;20035;-65
2022/06/01 12:04:55;;;;;;;5.10;2.60;;;16.20;99.90;;;;;;5097214;28;20456;-65
2022/06/01 12:07:28;;;;;;;3.33;2.42;;;16.40;99.90;;;;;;5113055;28;20094;-65
2022/06/01 12:10:18;;;;;;;2.65;2.13;;;16.40;99.90;;;;;;5115940;28;20118;-66
2022/06/01 12:12:55;;;;;;;4.10;2.70;;;16.70;99.90;;;;;;5111211;28;20074;-66
2022/06/01 12:15:43;;;;;;;5.18;3.08;;;17.00;99.90;;;;;;5096750;28;20077;-65
2022/06/01 12:18:11;;;;;;;5.82;2.78;;;17.20;99.90;;;;;;5113591;27;20059;-66
2022/06/01 12:20:37;;;;;;;4.38;3.00;;;17.50;99.90;;;;;;5122877;28;20074;-66
2022/06/01 12:29:02;;;;;;;4.53;3.17;;;17.50;99.90;;;;;;5111898;28;20169;-65
2022/06/01 12:31:53;;;;;;;4.82;2.78;;;17.50;99.90;;;;;;5116780;28;20047;-66
2022/06/01 12:34:21;;;;;;;3.38;2.22;;;17.60;99.90;;;;;;5109786;28;20047;-66
2022/06/01 12:37:09;;;;;;;3.72;2.28;;;17.40;99.90;;;;;;5110441;28;20089;-66
2022/06/01 12:39:37;;;;;;;4.47;2.70;;;17.30;99.90;;;;;;5122408;27;20076;-65
2022/06/01 12:42:14;;;;;;;2.88;2.38;;;17.30;99.90;;;;;;5126730;27;20122;-66
2022/06/01 12:44:43;;;;;;;3.85;2.38;;;17.60;99.90;;;;;;5118869;27;20071;-66
2022/06/01 12:47:25;;;;;;;2.80;2.30;;;17.70;99.90;;;;;;5117082;27;20140;-67
2022/06/01 12:49:51;;;;;;;5.22;2.20;;;17.70;99.90;;;;;;5118410;27;20039;-65
2022/06/01 12:52:20;;;;;;;3.67;2.20;;;17.70;99.90;;;;;;5117172;27;20050;-65
2022/06/01 12:54:59;;;;;;;9.80;3.70;;;17.50;99.90;;;;;;5095987;27;20051;-66
2022/06/01 12:57:32;;;;;;;2.70;1.90;;;17.40;99.90;;;;;;5112460;27;20032;-66
2022/06/01 13:00:12;;;;;;;3.30;2.40;;;17.30;99.90;;;;;;5119220;27;20043;-67
2022/06/01 13:02:40;;;;;;;2.80;1.70;;;17.30;99.90;;;;;;5116065;27;20067;-68
2022/06/01 13:05:09;;;;;;;3.08;1.77;;;17.00;99.90;;;;;;5112396;27;20096;-65
2022/06/01 13:07:39;;;;;;;4.40;1.80;;;16.90;99.90;;;;;;5115273;27;20048;-65
2022/06/01 13:10:21;;;;;;;2.08;1.60;;;16.80;99.90;;;;;;5096737;28;20260;-65
2022/06/01 13:12:47;;;;;;;3.38;1.90;;;16.70;99.90;;;;;;5117238;27;20039;-66
2022/06/01 13:15:22;;;;;;;3.05;1.70;;;16.70;99.90;;;;;;5116867;27;20035;-67
2022/06/01 13:17:52;;;;;;;3.55;1.63;;;16.60;99.90;;;;;;5112551;27;20390;-64
2022/06/01 13:20:38;;;;;;;1.48;1.38;;;16.60;99.90;;;;;;5116461;27;20052;-65
2022/06/01 13:23:28;;;;;;;1.45;1.33;;;16.70;99.90;;;;;;5099518;27;20067;-66
2022/06/01 13:25:57;;;;;;;1.48;1.30;;;17.00;99.90;;;;;;5114527;27;20042;-66
2022/06/01 13:28:25;;;;;;;1.60;1.13;;;17.00;99.90;;;;;;5113126;27;20074;-65
2022/06/01 13:30:51;;;;;;;2.13;1.50;;;17.40;99.90;;;;;;5122884;27;20428;-67